Weather at Pishtigovo Airstrip

Public forecast

Using degrees Celsius for public forecast. Weather courtesy of forecast.io.

Closest aviation weather report (METAR) to Pishtigovo Airstrip

Closest report is Graf Ignatievo Air Base, 12.7 nm (23.6 km) ENE.

2024/06/15 04:00 (retrieved 58 minutes ago)

LBPG 150400Z 25010KT 9999 SKC 15/10 Q1013

Closest aviation forecast (TAF) to Pishtigovo Airstrip

Forecast is more than 6 hours old.

Closest forecast is Kuk√ęs International Airport, 179.5 nm (332.5 km) W.

2024/06/14 18:00 Ammendment (retrieved 11 hours ago)

TAF AMD LAKU 141900Z 1418/1518 CNL